Time;durP1;ratioP1;P1;durP2;ratioP2;P2;SDS_P1;SDS_P2;PMS_P1;PMS_P2;Temp;Humidity;BMP_temperature;BMP_pressure;BME280_temperature;BME280_humidity;BME280_pressure;Samples;Min_cycle;Max_cycle;Signal;HPM_P1;HPM_P2
2023/05/04 00:01:17;;;;;;;5.78;3.58;;;;;;;13.35;51.48;101151.94;4131481;28;20030;-60
2023/05/04 00:03:20;;;;;;;;;;;;;;;13.21;52.51;101154.31;4131737;28;20141;-60
2023/05/04 00:05:23;;;;;;;4.50;2.17;;;;;;;13.21;51.77;101151.72;4130455;28;20024;-61
2023/05/04 00:07:26;;;;;;;5.15;2.88;;;;;;;13.17;53.15;101149.94;4130557;28;20034;-61
2023/05/04 00:09:28;;;;;;;6.13;2.80;;;;;;;13.17;53.40;101143.81;4130777;28;20038;-61
2023/05/04 00:11:31;;;;;;;4.68;2.03;;;;;;;13.11;53.12;101149.81;4132735;28;20443;-61
2023/05/04 00:13:35;;;;;;;6.13;2.95;;;;;;;13.07;53.47;101140.22;4132250;28;20042;-61
2023/05/04 00:15:38;;;;;;;6.68;3.05;;;;;;;13.04;52.96;101140.13;4132491;28;20042;-61
2023/05/04 00:17:41;;;;;;;9.75;2.97;;;;;;;12.98;53.06;101140.06;4133162;28;20458;-61
2023/05/04 00:19:45;;;;;;;4.53;2.40;;;;;;;12.96;53.36;101133.94;4132185;28;20042;-61
2023/05/04 00:21:48;;;;;;;6.23;3.17;;;;;;;12.95;53.58;101138.25;4132597;28;20115;-60
2023/05/04 00:23:50;;;;;;;4.35;2.70;;;;;;;12.94;54.01;101136.53;4132186;28;20073;-61
2023/05/04 00:25:53;;;;;;;5.72;2.75;;;;;;;12.93;54.24;101133.03;4125474;28;20039;-61
2023/05/04 00:27:56;;;;;;;6.63;3.60;;;;;;;12.93;54.48;101132.16;4132108;28;20049;-60
2023/05/04 00:30:01;;;;;;;4.93;2.47;;;;;;;12.93;53.64;101130.41;4130366;28;20073;-61
2023/05/04 00:32:05;;;;;;;5.60;2.75;;;;;;;12.95;53.56;101127.81;4131017;28;20097;-61
2023/05/04 00:34:08;;;;;;;5.22;3.00;;;;;;;12.89;53.76;101128.63;4126065;28;20058;-61
2023/05/04 00:36:12;;;;;;;7.05;2.83;;;;;;;12.88;53.70;101120.78;4128689;28;20053;-61
2023/05/04 00:38:16;;;;;;;5.05;2.75;;;;;;;12.82;53.86;101129.41;4127952;28;20093;-61
2023/05/04 00:40:19;;;;;;;3.75;2.60;;;;;;;12.76;54.33;101121.44;4130707;28;20042;-61
2023/05/04 00:42:22;;;;;;;6.82;3.28;;;;;;;12.68;53.86;101125.69;4130230;28;20050;-61
2023/05/04 00:44:26;;;;;;;8.40;3.15;;;;;;;12.65;54.09;101117.81;4122841;28;20039;-61
2023/05/04 00:46:31;;;;;;;4.95;2.85;;;;;;;12.65;54.63;101120.41;4131030;28;20038;-61
2023/05/04 00:48:34;;;;;;;7.65;3.22;;;;;;;12.65;54.98;101117.81;4130884;28;20069;-61
2023/05/04 00:50:38;;;;;;;7.10;3.20;;;;;;;12.65;54.91;101121.28;4130252;28;20053;-61
2023/05/04 00:52:43;;;;;;;5.03;3.00;;;;;;;12.65;54.72;101113.47;4130666;28;20597;-61
2023/05/04 00:54:47;;;;;;;6.18;3.28;;;;;;;12.60;55.43;101114.22;4145463;28;20463;-61
2023/05/04 00:56:50;;;;;;;5.28;3.83;;;;;;;12.57;55.41;101115.06;4130689;28;20046;-62
2023/05/04 00:58:53;;;;;;;4.60;2.80;;;;;;;12.52;55.44;101107.16;4124922;28;20042;-61
2023/05/04 01:00:56;;;;;;;6.13;2.90;;;;;;;12.48;55.16;101110.56;4135060;28;20543;-61
2023/05/04 01:03:00;;;;;;;5.80;3.17;;;;;;;12.48;55.10;101114.91;4151737;28;20406;-61
2023/05/04 01:05:04;;;;;;;6.60;3.47;;;;;;;12.46;55.92;101107.06;4127117;28;20038;-61
2023/05/04 01:07:17;;;;;;;9.18;3.33;;;;;;;12.47;56.26;101113.16;4131204;28;20488;-61
2023/05/04 01:09:27;;;;;;;6.28;3.20;;;;;;;12.43;55.97;101107.00;4128384;28;20452;-61
2023/05/04 01:11:37;;;;;;;7.65;4.07;;;;;;;12.39;55.82;101111.28;4136674;28;20041;-61
2023/05/04 01:13:40;;;;;;;5.47;3.10;;;;;;;12.34;56.11;101112.09;4127523;28;20046;-61
2023/05/04 01:15:43;;;;;;;6.15;3.30;;;;;;;12.34;56.17;101114.69;4126389;28;20042;-61
2023/05/04 01:17:46;;;;;;;5.65;3.28;;;;;;;12.30;56.14;101105.91;4134451;28;20042;-61
2023/05/04 01:19:52;;;;;;;6.40;3.45;;;;;;;12.33;56.60;101105.09;4150618;28;20078;-61
2023/05/04 01:21:57;;;;;;;6.70;3.60;;;;;;;12.31;56.22;101107.69;4130416;28;20042;-61
2023/05/04 01:24:00;;;;;;;6.10;3.65;;;;;;;12.29;56.35;101098.94;4128205;28;20484;-61
2023/05/04 01:26:10;;;;;;;5.68;3.65;;;;;;;12.29;55.94;101098.06;4129347;28;20048;-62
2023/05/04 01:28:18;;;;;;;6.35;3.75;;;;;;;12.21;55.83;101101.41;4129460;28;20081;-61
2023/05/04 01:30:25;;;;;;;5.75;3.55;;;;;;;12.18;56.21;101100.50;4148735;28;20491;-61
2023/05/04 01:32:31;;;;;;;5.43;3.30;;;;;;;12.14;56.82;101102.16;4126370;28;20035;-61
2023/05/04 01:34:35;;;;;;;6.07;3.65;;;;;;;12.13;56.82;101105.59;4121730;28;20074;-61
2023/05/04 01:36:38;;;;;;;4.63;2.78;;;;;;;12.11;56.33;101099.50;4130468;28;20038;-61
2023/05/04 01:38:47;;;;;;;9.30;3.40;;;;;;;12.13;56.40;101113.44;4129892;28;20046;-61
2023/05/04 01:40:50;;;;;;;7.75;3.80;;;;;;;12.09;56.05;101105.53;4129830;28;20042;-61
2023/05/04 01:42:53;;;;;;;8.27;4.05;;;;;;;12.07;56.60;101108.09;4127941;28;20035;-61
2023/05/04 01:44:56;;;;;;;5.63;3.05;;;;;;;12.02;57.25;101102.81;4129809;28;20038;-61
2023/05/04 01:46:59;;;;;;;5.63;3.75;;;;;;;11.99;56.69;101114.94;4125461;28;20480;-61
2023/05/04 01:49:01;;;;;;;7.18;3.45;;;;;;;11.94;57.21;101114.81;4148389;28;20052;-61
2023/05/04 01:51:05;;;;;;;8.57;4.07;;;;;;;11.96;56.86;101114.84;4129721;28;20038;-61
2023/05/04 01:53:08;;;;;;;7.25;3.72;;;;;;;11.93;57.10;101112.16;4127892;28;20389;-61
2023/05/04 01:55:12;;;;;;;7.85;3.78;;;;;;;11.90;57.28;101109.47;4128484;28;20509;-61
2023/05/04 01:57:15;;;;;;;8.13;4.13;;;;;;;11.84;58.08;101111.13;4126152;28;20038;-61
2023/05/04 01:59:18;;;;;;;6.15;3.72;;;;;;;11.85;58.31;101112.88;4129034;28;20048;-61
2023/05/04 02:01:20;;;;;;;7.30;4.72;;;;;;;11.84;57.96;101111.13;4126071;28;20100;-61
2023/05/04 02:03:23;;;;;;;8.45;4.45;;;;;;;11.82;57.82;101110.22;4124161;28;20416;-61
2023/05/04 02:05:26;;;;;;;7.60;3.90;;;;;;;11.81;58.32;101112.78;4126872;28;20039;-61
2023/05/04 02:07:29;;;;;;;7.47;3.65;;;;;;;11.77;58.78;101114.47;4128845;28;20053;-61
2023/05/04 02:09:32;;;;;;;6.45;4.00;;;;;;;11.80;58.20;101111.91;4132171;28;20046;-61
2023/05/04 02:11:36;;;;;;;9.55;4.43;;;;;;;11.80;58.28;101108.44;4128934;28;20424;-61
2023/05/04 02:13:39;;;;;;;6.60;4.18;;;;;;;11.77;57.86;101114.47;4129292;28;20034;-61
2023/05/04 02:15:42;;;;;;;6.72;3.75;;;;;;;11.76;58.90;101107.50;4111619;28;20517;-61
2023/05/04 02:17:45;;;;;;;10.48;4.25;;;;;;;11.76;58.23;101102.28;4141341;28;20081;-61
2023/05/04 02:19:48;;;;;;;12.27;4.53;;;;;;;11.79;58.33;101102.34;4123818;28;20035;-61
2023/05/04 02:21:51;;;;;;;8.48;4.30;;;;;;;11.79;58.50;101104.06;4126836;28;20054;-61
2023/05/04 02:23:56;;;;;;;9.75;3.72;;;;;;;11.78;57.70;101095.38;4127890;28;20089;-61
2023/05/04 02:25:59;;;;;;;10.65;4.95;;;;;;;11.82;57.69;101107.59;4130362;28;20108;-61
2023/05/04 02:28:03;;;;;;;8.85;4.18;;;;;;;11.83;57.88;101098.94;4128398;28;20050;-61
2023/05/04 02:30:08;;;;;;;10.57;3.60;;;;;;;11.83;57.74;101103.28;4128512;28;20516;-61
2023/05/04 02:32:10;;;;;;;7.72;4.32;;;;;;;11.79;58.29;101097.13;4123562;28;20035;-61
2023/05/04 02:34:13;;;;;;;6.50;4.22;;;;;;;11.81;57.80;101092.84;4122342;28;20034;-61
2023/05/04 02:36:21;;;;;;;7.50;4.80;;;;;;;11.82;57.26;101097.19;4126437;28;20064;-61
2023/05/04 02:38:25;;;;;;;7.05;4.18;;;;;;;11.83;57.43;101096.34;4128647;28;20508;-61
2023/05/04 02:40:28;;;;;;;5.70;4.07;;;;;;;11.80;57.80;101095.44;4128104;28;20038;-61
2023/05/04 02:42:32;;;;;;;5.57;3.92;;;;;;;11.78;57.83;101094.50;4128552;28;20508;-61
2023/05/04 02:44:36;;;;;;;11.38;4.35;;;;;;;11.76;57.53;101091.88;4125888;28;20042;-61
2023/05/04 02:46:39;;;;;;;10.43;4.18;;;;;;;11.70;58.08;101087.41;4125391;28;20089;-61
2023/05/04 02:48:42;;;;;;;9.25;4.75;;;;;;;11.70;57.70;101096.97;4128375;28;20042;-61
2023/05/04 02:50:45;;;;;;;7.75;4.90;;;;;;;11.69;57.17;101093.47;4111479;28;20054;-61
2023/05/04 02:52:48;;;;;;;6.95;4.20;;;;;;;11.72;57.39;101091.78;4145215;28;20045;-61
2023/05/04 02:54:51;;;;;;;8.02;4.90;;;;;;;11.73;57.09;101097.03;4127943;28;20060;-61
2023/05/04 02:56:55;;;;;;;9.10;5.13;;;;;;;11.72;57.60;101100.47;4128786;28;20125;-61
2023/05/04 02:58:58;;;;;;;6.75;4.30;;;;;;;11.69;58.03;101095.19;4127934;28;20050;-61
2023/05/04 03:01:02;;;;;;;11.73;4.80;;;;;;;11.70;58.05;101095.22;4113402;28;20547;-61
2023/05/04 03:03:05;;;;;;;9.23;4.85;;;;;;;11.64;59.18;101099.44;4141784;28;20423;-61
2023/05/04 03:05:09;;;;;;;8.85;4.50;;;;;;;11.62;59.33;101085.50;4126999;28;20046;-61
2023/05/04 03:07:12;;;;;;;9.65;5.18;;;;;;;11.59;59.55;101088.03;4126150;28;20125;-61
2023/05/04 03:09:15;;;;;;;8.10;4.45;;;;;;;11.53;59.56;101084.50;4129049;28;20046;-60
2023/05/04 03:11:18;;;;;;;7.75;4.75;;;;;;;11.52;59.10;101077.50;4129328;28;20146;-61
2023/05/04 03:13:20;;;;;;;6.82;4.60;;;;;;;11.49;60.03;101076.56;4123380;28;20093;-61
2023/05/04 03:15:23;;;;;;;9.05;4.75;;;;;;;11.45;59.58;101085.19;4127570;28;20074;-61
2023/05/04 03:17:27;;;;;;;13.73;5.32;;;;;;;11.43;59.19;101082.50;4128661;28;20034;-61
2023/05/04 03:19:31;;;;;;;9.38;4.78;;;;;;;11.35;59.27;101081.50;4146880;28;20037;-61
2023/05/04 03:21:34;;;;;;;9.02;5.00;;;;;;;11.30;59.58;101080.50;4138991;28;20073;-61
2023/05/04 03:23:37;;;;;;;10.02;4.80;;;;;;;11.29;59.27;101086.56;4127138;28;20415;-60
2023/05/04 03:25:40;;;;;;;8.07;4.63;;;;;;;11.30;59.80;101085.72;4127681;28;20042;-61
2023/05/04 03:27:43;;;;;;;8.60;5.47;;;;;;;11.28;59.56;101082.22;4127859;28;20069;-61
2023/05/04 03:29:46;;;;;;;10.30;5.55;;;;;;;11.27;59.65;101078.75;4127751;28;20492;-61
2023/05/04 03:31:49;;;;;;;9.40;5.85;;;;;;;11.25;59.51;101077.81;4127907;28;20042;-61
2023/05/04 03:33:54;;;;;;;9.60;5.03;;;;;;;11.27;59.76;101078.75;4125453;28;20113;-61
2023/05/04 03:35:58;;;;;;;8.43;5.20;;;;;;;11.27;60.32;101070.03;4125707;28;20091;-61
2023/05/04 03:38:00;;;;;;;9.60;5.53;;;;;;;11.23;60.10;101069.09;4127929;28;20097;-60
2023/05/04 03:40:04;;;;;;;12.23;5.93;;;;;;;11.21;60.17;101065.56;4141355;28;20045;-61
2023/05/04 03:42:07;;;;;;;8.90;5.87;;;;;;;11.16;60.34;101062.88;4149097;28;20062;-61
2023/05/04 03:44:10;;;;;;;9.95;5.47;;;;;;;11.16;60.56;101062.88;4122749;28;20034;-61
2023/05/04 03:46:13;;;;;;;8.75;5.72;;;;;;;11.14;60.67;101054.16;4125549;28;20125;-61
2023/05/04 03:48:16;;;;;;;6.88;5.25;;;;;;;11.11;60.74;101054.09;4124074;28;20125;-61
2023/05/04 03:50:21;;;;;;;10.75;5.65;;;;;;;11.10;61.03;101057.53;4126439;28;20050;-61
2023/05/04 03:52:23;;;;;;;;;;;;;;;10.97;61.22;101056.41;4115429;28;20050;-61
2023/05/04 03:54:26;;;;;;;6.95;4.85;;;;;;;10.99;61.01;101054.72;4126677;28;19922;-61
2023/05/04 03:56:29;;;;;;;7.30;4.68;;;;;;;11.04;60.42;101053.91;4136362;28;20132;-61
2023/05/04 03:58:33;;;;;;;10.00;5.50;;;;;;;11.07;61.30;101062.69;4128137;28;20568;-62
2023/05/04 04:00:38;;;;;;;7.55;5.00;;;;;;;11.06;60.75;101070.47;4126563;28;20034;-61
2023/05/04 04:02:47;;;;;;;10.88;5.60;;;;;;;11.07;60.99;101056.59;4135443;28;20093;-62
2023/05/04 04:04:53;;;;;;;8.50;4.75;;;;;;;11.08;60.57;101069.66;4127130;28;20042;-62
2023/05/04 04:06:58;;;;;;;7.88;4.93;;;;;;;11.10;60.61;101064.47;4127687;28;20042;-62
2023/05/04 04:09:01;;;;;;;;;;;;;;;10.95;61.74;101065.91;4139635;28;20038;-62
2023/05/04 04:11:05;;;;;;;7.82;5.32;;;;;;;10.99;61.35;101067.72;4125050;28;19922;-61
2023/05/04 04:13:08;;;;;;;12.70;5.70;;;;;;;11.06;61.36;101068.72;4127964;28;20040;-62
2023/05/04 04:15:11;;;;;;;7.85;4.90;;;;;;;11.08;61.34;101068.75;4122135;28;20050;-62
2023/05/04 04:17:14;;;;;;;9.18;5.28;;;;;;;11.07;62.41;101057.47;4123162;28;20389;-62
2023/05/04 04:19:17;;;;;;;7.72;4.05;;;;;;;11.09;62.22;101066.19;4128372;28;20050;-62
2023/05/04 04:21:20;;;;;;;10.57;5.68;;;;;;;11.07;62.88;101067.00;4129219;28;20045;-61
2023/05/04 04:23:24;;;;;;;9.55;6.05;;;;;;;11.09;62.44;101066.19;4127675;28;20057;-62
2023/05/04 04:25:27;;;;;;;9.27;5.32;;;;;;;11.10;63.01;101073.16;4124852;28;20061;-62
2023/05/04 04:27:30;;;;;;;10.75;5.40;;;;;;;11.11;62.59;101067.13;4123319;28;20038;-62
2023/05/04 04:29:34;;;;;;;10.75;6.10;;;;;;;11.13;62.75;101073.22;4131289;28;20042;-62
2023/05/04 04:31:38;;;;;;;10.07;5.15;;;;;;;11.11;63.00;101074.03;4132342;28;20060;-61
2023/05/04 04:33:42;;;;;;;8.57;5.28;;;;;;;11.10;63.20;101069.69;4127913;28;20061;-62
2023/05/04 04:35:44;;;;;;;8.48;5.72;;;;;;;11.13;62.59;101078.44;4131901;28;20046;-62
2023/05/04 04:37:47;;;;;;;10.40;5.20;;;;;;;11.14;62.39;101084.50;4131340;28;20050;-62
2023/05/04 04:39:52;;;;;;;8.50;6.40;;;;;;;11.11;62.02;101080.13;4131875;28;20046;-62
2023/05/04 04:41:54;;;;;;;10.77;6.28;;;;;;;11.08;61.54;101090.47;4131139;28;20038;-62
2023/05/04 04:43:57;;;;;;;9.32;5.70;;;;;;;11.11;61.83;101089.63;4131251;28;20038;-62
2023/05/04 04:46:01;;;;;;;8.85;5.82;;;;;;;11.12;61.79;101086.19;4132070;28;20044;-61
2023/05/04 04:48:04;;;;;;;8.63;4.72;;;;;;;11.13;61.83;101088.84;4128045;28;20030;-62
2023/05/04 04:50:07;;;;;;;14.68;5.97;;;;;;;11.13;61.84;101094.03;4132094;28;20046;-61
2023/05/04 04:52:10;;;;;;;15.90;5.95;;;;;;;11.19;62.37;101093.31;4131737;28;20065;-62
2023/05/04 04:54:14;;;;;;;9.32;5.78;;;;;;;11.23;61.72;101099.44;4131758;28;20133;-62
2023/05/04 04:56:18;;;;;;;8.98;6.00;;;;;;;11.28;61.42;101087.41;4131944;28;20034;-62
2023/05/04 04:58:21;;;;;;;8.98;5.18;;;;;;;11.30;61.58;101094.41;4130484;28;20042;-62
2023/05/04 05:00:25;;;;;;;10.65;5.22;;;;;;;11.38;62.73;101091.09;4131344;28;20088;-62
2023/05/04 05:02:27;;;;;;;7.82;4.88;;;;;;;11.42;62.94;101100.72;4132092;28;20066;-62
2023/05/04 05:04:30;;;;;;;10.70;5.88;;;;;;;11.46;61.93;101098.22;4130947;28;20049;-62
2023/05/04 05:06:33;;;;;;;11.07;5.65;;;;;;;11.46;62.09;101098.22;4122263;28;20459;-62
2023/05/04 05:08:36;;;;;;;11.25;5.65;;;;;;;11.48;62.73;101101.72;4131375;28;20039;-62
2023/05/04 05:10:39;;;;;;;9.38;5.72;;;;;;;11.50;62.70;101092.22;4131687;28;20041;-62
2023/05/04 05:12:47;;;;;;;11.05;5.88;;;;;;;11.52;62.45;101089.63;4127160;28;20476;-62
2023/05/04 05:14:50;;;;;;;9.30;4.78;;;;;;;11.52;62.40;101090.53;4131191;28;20039;-62
2023/05/04 05:16:53;;;;;;;13.15;6.10;;;;;;;11.53;63.11;101102.72;4156794;23;20041;-65
2023/05/04 05:18:56;;;;;;;10.90;5.90;;;;;;;11.57;62.91;101098.44;4179224;28;20048;-64
2023/05/04 05:20:59;;;;;;;9.57;6.03;;;;;;;11.59;62.82;101099.34;4146456;28;20046;-64
2023/05/04 05:23:02;;;;;;;9.95;6.03;;;;;;;11.58;62.55;101097.59;4159230;28;20507;-64
2023/05/04 05:25:06;;;;;;;8.82;5.53;;;;;;;11.60;61.88;101105.44;4146375;28;20092;-65
2023/05/04 05:27:08;;;;;;;11.10;6.43;;;;;;;11.56;62.05;101114.03;4163831;28;20057;-64
2023/05/04 05:29:13;;;;;;;10.30;6.18;;;;;;;11.52;62.38;101111.38;4143750;28;20045;-64
2023/05/04 05:31:16;;;;;;;11.10;5.72;;;;;;;11.51;62.29;101107.00;4163860;28;20380;-64
2023/05/04 05:33:18;;;;;;;11.82;6.15;;;;;;;11.53;62.51;101105.31;4146095;28;20600;-64
2023/05/04 05:35:21;;;;;;;12.15;6.75;;;;;;;11.57;62.42;101106.25;4161494;28;20555;-64
2023/05/04 05:37:24;;;;;;;11.02;6.55;;;;;;;11.62;61.81;101114.16;4146102;28;20034;-65
2023/05/04 05:39:28;;;;;;;9.10;5.85;;;;;;;11.65;61.56;101109.91;4161705;28;20033;-65
2023/05/04 05:41:30;;;;;;;11.32;5.97;;;;;;;11.68;61.92;101109.97;4163592;28;20041;-64
2023/05/04 05:43:33;;;;;;;9.60;6.32;;;;;;;11.70;61.71;101118.66;4164151;28;20088;-64
2023/05/04 05:45:37;;;;;;;10.02;6.20;;;;;;;11.76;61.41;101104.03;4163534;28;20049;-64
2023/05/04 05:47:40;;;;;;;8.00;5.68;;;;;;;11.80;60.90;101103.25;4163476;28;20037;-65
2023/05/04 05:49:43;;;;;;;13.07;6.30;;;;;;;11.88;60.87;101099.03;4160534;28;20044;-65
2023/05/04 05:51:48;;;;;;;8.65;5.72;;;;;;;11.96;60.46;101099.22;4162370;28;20124;-65
2023/05/04 05:53:51;;;;;;;10.02;5.80;;;;;;;12.02;60.69;101095.00;4145524;28;20048;-65
2023/05/04 05:55:53;;;;;;;10.52;5.70;;;;;;;12.09;60.47;101105.53;4145630;28;20115;-65
2023/05/04 05:57:56;;;;;;;10.38;5.90;;;;;;;12.14;60.64;101098.69;4163400;28;20104;-65
2023/05/04 05:59:59;;;;;;;8.90;5.65;;;;;;;12.19;60.54;101102.25;4145788;28;20061;-65
2023/05/04 06:02:04;;;;;;;10.93;5.78;;;;;;;12.28;59.57;101102.41;4162740;28;20124;-65
2023/05/04 06:04:07;;;;;;;11.15;6.40;;;;;;;12.37;59.49;101092.13;4129988;28;20097;-65
2023/05/04 06:06:10;;;;;;;11.70;6.72;;;;;;;12.50;59.39;101103.66;4161889;28;20046;-65
2023/05/04 06:08:13;;;;;;;17.38;7.50;;;;;;;12.74;57.76;101092.72;4145564;28;20030;-65
2023/05/04 06:10:16;;;;;;;24.65;9.10;;;;;;;12.88;56.91;101090.34;4145182;28;20037;-65
2023/05/04 06:12:19;;;;;;;17.60;9.25;;;;;;;12.93;56.14;101091.28;4145247;28;20518;-65
2023/05/04 06:14:22;;;;;;;19.23;9.73;;;;;;;12.97;55.79;101091.34;4163181;28;20034;-65
2023/05/04 06:16:25;;;;;;;19.17;9.48;;;;;;;12.88;56.21;101095.56;4161758;28;20518;-65
2023/05/04 06:18:29;;;;;;;24.55;9.40;;;;;;;13.02;56.23;101089.66;4162331;28;20040;-66
2023/05/04 06:20:32;;;;;;;15.10;7.65;;;;;;;13.08;55.89;101094.97;4162998;28;20045;-66
2023/05/04 06:22:35;;;;;;;14.13;8.43;;;;;;;13.08;56.64;101090.63;4157118;28;20415;-66
2023/05/04 06:24:37;;;;;;;13.65;7.07;;;;;;;13.21;56.49;101085.56;4162316;28;20533;-66
2023/05/04 06:26:40;;;;;;;15.02;7.80;;;;;;;13.27;56.33;101085.66;4162908;28;20045;-66
2023/05/04 06:28:43;;;;;;;16.20;7.88;;;;;;;13.34;56.02;101084.00;4159773;28;20040;-66
2023/05/04 06:30:47;;;;;;;14.25;8.65;;;;;;;13.46;55.17;101089.41;4162889;28;20041;-66
2023/05/04 06:32:50;;;;;;;15.30;8.33;;;;;;;13.51;55.21;101079.03;4145126;28;20038;-66
2023/05/04 06:34:54;;;;;;;18.38;9.32;;;;;;;13.54;54.73;101082.53;4162563;28;20518;-66
2023/05/04 06:36:57;;;;;;;16.60;8.77;;;;;;;13.56;55.27;101078.19;4139261;28;20059;-66
2023/05/04 06:39:00;;;;;;;16.95;7.85;;;;;;;13.69;54.25;101080.97;4163435;28;20035;-66
2023/05/04 06:41:03;;;;;;;13.18;8.63;;;;;;;13.76;54.10;101082.81;4144839;28;20070;-66
2023/05/04 06:43:06;;;;;;;13.20;8.32;;;;;;;13.86;53.86;101076.81;4143850;28;20038;-66
2023/05/04 06:45:10;;;;;;;17.70;9.23;;;;;;;13.99;53.02;101079.53;4162750;28;20037;-66
2023/05/04 06:47:14;;;;;;;13.25;8.07;;;;;;;14.05;52.45;101082.25;4145411;28;20096;-66
2023/05/04 06:49:18;;;;;;;19.48;8.20;;;;;;;14.12;52.83;101082.31;4158036;28;20044;-66
2023/05/04 06:51:22;;;;;;;17.65;8.50;;;;;;;14.20;52.30;101079.75;4145151;28;20042;-66
2023/05/04 06:53:24;;;;;;;13.90;7.57;;;;;;;14.12;52.52;101077.06;4142126;28;20049;-66
2023/05/04 06:55:27;;;;;;;18.00;8.30;;;;;;;14.12;52.85;101078.81;4162219;28;20065;-66
2023/05/04 06:57:30;;;;;;;13.57;7.75;;;;;;;14.24;52.57;101081.53;4162579;28;20049;-66
2023/05/04 06:59:33;;;;;;;12.20;7.63;;;;;;;14.35;52.77;101078.13;4162548;28;20491;-66
2023/05/04 07:01:36;;;;;;;12.43;7.88;;;;;;;14.48;52.71;101082.59;4144251;28;20056;-66
2023/05/04 07:03:39;;;;;;;15.48;7.60;;;;;;;14.55;53.17;101081.78;4162349;28;20029;-66
2023/05/04 07:05:43;;;;;;;18.65;9.38;;;;;;;14.72;52.14;101081.06;4139374;28;20077;-66
2023/05/04 07:07:47;;;;;;;15.90;8.32;;;;;;;14.83;50.77;101082.03;4161084;28;20041;-66
2023/05/04 07:09:53;;;;;;;17.35;9.80;;;;;;;14.92;49.88;101082.09;4162509;28;20049;-66
2023/05/04 07:11:56;;;;;;;42.30;10.57;;;;;;;14.94;50.75;101080.34;4162730;28;20065;-66
2023/05/04 07:13:59;;;;;;;37.08;11.20;;;;;;;15.08;49.78;101079.56;4144818;28;20389;-66
2023/05/04 07:16:02;;;;;;;34.30;10.25;;;;;;;15.15;50.27;101079.59;4161840;28;20519;-66
2023/05/04 07:18:05;;;;;;;17.77;9.18;;;;;;;15.18;49.92;101073.50;4161311;28;20029;-66
2023/05/04 07:20:09;;;;;;;37.00;10.75;;;;;;;15.24;49.42;101075.28;4152934;28;20083;-66
2023/05/04 07:22:12;;;;;;;22.17;10.10;;;;;;;15.24;50.47;101073.53;4161765;28;20040;-66
2023/05/04 07:24:16;;;;;;;17.88;9.73;;;;;;;15.37;49.36;101058.75;4161254;28;20045;-66
2023/05/04 07:26:19;;;;;;;18.58;7.82;;;;;;;15.38;48.92;101059.63;4128407;28;20054;-66
2023/05/04 07:28:21;;;;;;;23.05;8.60;;;;;;;15.40;49.18;101052.66;4142648;28;20486;-66
2023/05/04 07:30:24;;;;;;;11.82;7.80;;;;;;;15.61;48.83;101059.69;4162279;28;20065;-66
2023/05/04 07:32:27;;;;;;;13.27;7.80;;;;;;;15.68;48.56;101054.50;4144668;28;20068;-66
2023/05/04 07:34:31;;;;;;;13.55;7.53;;;;;;;15.74;48.36;101048.41;4160930;28;20043;-66
2023/05/04 07:36:47;;;;;;;14.73;7.20;;;;;;;15.77;48.65;101052.75;4156394;28;20034;-66
2023/05/04 07:38:50;;;;;;;14.02;6.38;;;;;;;15.91;48.41;101050.19;4160040;28;20471;-66
2023/05/04 07:40:55;;;;;;;10.65;6.43;;;;;;;15.99;48.28;101054.59;4144743;28;20045;-66
2023/05/04 07:42:57;;;;;;;;;;;;;;;16.14;48.59;101045.84;4160934;28;20483;-66
2023/05/04 07:45:00;;;;;;;11.70;7.32;;;;;;;16.31;47.82;101050.22;4162136;28;19920;-66
2023/05/04 07:47:03;;;;;;;12.75;7.47;;;;;;;16.33;48.22;101045.88;4162054;28;20063;-66
2023/05/04 07:49:06;;;;;;;21.00;7.35;;;;;;;16.45;47.24;101048.47;4158164;28;20038;-66
2023/05/04 07:51:12;;;;;;;16.35;6.90;;;;;;;16.51;46.54;101039.72;4161862;28;20037;-66
2023/05/04 07:53:15;;;;;;;12.55;6.70;;;;;;;16.57;46.52;101047.59;4146479;28;20041;-66
2023/05/04 07:55:18;;;;;;;12.70;7.00;;;;;;;16.62;47.00;101043.22;4165291;28;20041;-66
2023/05/04 07:57:23;;;;;;;23.85;7.65;;;;;;;16.72;47.50;101034.44;4146003;28;20494;-66
2023/05/04 07:59:25;;;;;;;14.38;7.32;;;;;;;16.89;46.94;101033.56;4147776;28;20033;-66
2023/05/04 08:01:28;;;;;;;20.20;6.43;;;;;;;16.89;47.48;101039.72;4162952;28;20513;-66
2023/05/04 08:03:31;;;;;;;11.43;6.32;;;;;;;16.97;47.40;101031.78;4165639;28;20041;-66
2023/05/04 08:05:34;;;;;;;10.88;6.15;;;;;;;17.05;47.27;101022.13;4164930;28;20045;-66
2023/05/04 08:07:37;;;;;;;14.27;5.82;;;;;;;17.12;47.39;101019.50;4165348;28;20095;-66
2023/05/04 08:09:40;;;;;;;24.35;7.85;;;;;;;17.27;47.50;101024.66;4147278;28;20038;-66
2023/05/04 08:11:43;;;;;;;11.98;6.30;;;;;;;17.39;47.07;101013.22;4160461;28;20080;-66
2023/05/04 08:13:47;;;;;;;11.75;6.82;;;;;;;17.48;46.65;101015.81;4164983;28;20139;-66
2023/05/04 08:15:50;;;;;;;14.55;6.70;;;;;;;17.52;46.18;101011.41;4157035;28;20037;-66
2023/05/04 08:17:53;;;;;;;22.88;8.23;;;;;;;17.58;46.87;101007.00;4164953;28;20079;-66
2023/05/04 08:20:08;;;;;;;25.85;8.10;;;;;;;17.72;46.02;101011.28;4164959;28;20040;-66
2023/05/04 08:22:10;;;;;;;;;;;;;;;17.89;46.50;101008.56;4164785;28;20052;-66
2023/05/04 08:24:13;;;;;;;11.00;7.30;;;;;;;18.03;44.84;101005.84;4147675;28;20407;-66
2023/05/04 08:26:18;;;;;;;;;;;;;;;18.00;44.59;101001.47;4165238;28;20033;-66
2023/05/04 08:28:21;;;;;;;8.50;6.25;;;;;;;17.99;45.40;100999.75;4143731;28;19968;-65
2023/05/04 08:30:26;;;;;;;12.38;6.43;;;;;;;17.99;45.80;100999.75;4164520;28;20132;-66
2023/05/04 08:32:29;;;;;;;11.73;5.10;;;;;;;18.06;45.98;100992.66;4164625;28;20037;-66
2023/05/04 08:34:35;;;;;;;9.88;5.47;;;;;;;18.09;45.10;100984.72;4164785;28;20041;-66
2023/05/04 08:36:38;;;;;;;9.95;6.60;;;;;;;18.22;44.78;100989.00;4145462;28;20080;-66
2023/05/04 08:38:41;;;;;;;11.73;5.78;;;;;;;18.33;45.23;100994.19;4165614;28;20052;-66
2023/05/04 08:40:44;;;;;;;9.23;4.82;;;;;;;18.38;46.43;100992.38;4147370;28;20072;-66
2023/05/04 08:42:49;;;;;;;14.82;6.90;;;;;;;18.56;44.96;100991.34;4146734;28;20043;-66
2023/05/04 08:44:52;;;;;;;30.25;9.82;;;;;;;18.70;44.36;100988.53;4147065;28;20038;-66
2023/05/04 08:46:57;;;;;;;10.10;6.50;;;;;;;18.66;44.37;100979.81;4163589;28;20128;-66
2023/05/04 08:48:59;;;;;;;9.00;6.25;;;;;;;18.77;44.04;100974.41;4130768;28;20046;-65
2023/05/04 08:51:03;;;;;;;7.15;4.63;;;;;;;18.84;43.16;100975.22;4146929;28;20503;-65
2023/05/04 08:53:12;;;;;;;8.65;4.65;;;;;;;18.78;43.83;100976.16;4157241;28;20048;-65
2023/05/04 08:55:16;;;;;;;9.73;4.55;;;;;;;18.94;44.34;100973.34;4160818;28;20041;-66
2023/05/04 08:57:20;;;;;;;6.68;4.10;;;;;;;19.00;42.55;100976.81;4159788;28;20043;-66
2023/05/04 08:59:25;;;;;;;7.72;4.18;;;;;;;19.14;41.98;100979.28;4161062;28;20049;-66
2023/05/04 09:01:29;;;;;;;5.35;3.45;;;;;;;19.14;42.45;100974.00;4160695;28;20033;-66
2023/05/04 09:03:34;;;;;;;6.80;3.80;;;;;;;19.37;41.11;100970.16;4162941;28;20041;-66
2023/05/04 09:05:37;;;;;;;7.43;3.13;;;;;;;19.49;41.57;100967.38;4141858;28;20066;-66
2023/05/04 09:07:40;;;;;;;5.15;3.28;;;;;;;19.60;41.93;100967.22;4145439;28;20058;-66
2023/05/04 09:09:43;;;;;;;10.77;4.65;;;;;;;19.62;41.66;100961.91;4135255;28;20555;-66
2023/05/04 09:11:46;;;;;;;8.60;4.65;;;;;;;19.83;41.35;100955.44;4139022;28;20096;-66
2023/05/04 09:13:49;;;;;;;7.63;4.25;;;;;;;19.86;41.55;100958.91;4164030;28;20048;-66
2023/05/04 09:15:55;;;;;;;5.68;3.65;;;;;;;19.83;40.12;100958.06;4157577;28;20041;-66
2023/05/04 09:18:01;;;;;;;10.45;4.43;;;;;;;19.93;40.54;100956.16;4164656;28;20411;-66
2023/05/04 09:20:08;;;;;;;18.73;5.40;;;;;;;20.07;39.74;100962.09;4164063;28;20044;-66
2023/05/04 09:22:15;;;;;;;15.38;3.85;;;;;;;20.09;40.95;100960.28;4162729;28;20045;-65
2023/05/04 09:24:26;;;;;;;7.35;4.05;;;;;;;20.07;39.46;100948.03;4143158;28;20064;-66
2023/05/04 09:26:30;;;;;;;7.90;4.00;;;;;;;20.03;39.62;100957.75;4139068;28;20444;-65
2023/05/04 09:28:38;;;;;;;6.22;3.80;;;;;;;20.07;39.62;100953.31;4160676;28;20117;-66
2023/05/04 09:30:41;;;;;;;5.30;3.10;;;;;;;20.18;39.62;100960.13;4136772;28;20045;-66
2023/05/04 09:32:48;;;;;;;8.63;4.28;;;;;;;20.37;39.19;100946.59;4160469;28;20051;-66